Thompson, Michigan
Current Conditions -  °F | °C
As of 9:34 AM on Friday 24 Oct 2014 (Local Time) from KISQ Reporting Station
Haze Haze  
Wind Chill:   Ceiling: 300
Heat Index:   Visibility: 4mi
Dew Point:   Wind: 0mph
Humidity: 99%   Direction: NA
Pressure: 29.99"   Gusts: NA
Location:  46.1571°N, 86.3397°W
Report Text: KISQ 241334Z AUTO 00000KT 4SM BR OVC003 09/09 A2999 RMK AO2 T00870085
Loading
Personal Weather Stations






























Interactive Weather Map
Tropical Storm Tracking
New forecast layout! Learn more

10-Day Weather Forecast

Advertisements
Track Severe Weather on mobile